sensor_id;sensor_type;location;lat;lon;timestamp;P1;durP1;ratioP1;P2;durP2;ratioP2
21825;SDS011;11075;47.944;11.776;2023-04-03T00:01:02;14.47;;;9.47;;
21825;SDS011;11075;47.944;11.776;2023-04-03T00:03:30;15.33;;;9.83;;
21825;SDS011;11075;47.944;11.776;2023-04-03T00:05:56;14.67;;;9.37;;
21825;SDS011;11075;47.944;11.776;2023-04-03T00:08:24;13.27;;;9.07;;
21825;SDS011;11075;47.944;11.776;2023-04-03T00:10:51;16.03;;;10.17;;
21825;SDS011;11075;47.944;11.776;2023-04-03T00:13:18;14.93;;;9.47;;
21825;SDS011;11075;47.944;11.776;2023-04-03T00:15:45;11.97;;;8.63;;
21825;SDS011;11075;47.944;11.776;2023-04-03T00:18:11;12.23;;;8.47;;
21825;SDS011;11075;47.944;11.776;2023-04-03T00:20:39;12.73;;;8.47;;
21825;SDS011;11075;47.944;11.776;2023-04-03T00:23:06;14.43;;;9.53;;
21825;SDS011;11075;47.944;11.776;2023-04-03T00:25:33;13.63;;;8.83;;
21825;SDS011;11075;47.944;11.776;2023-04-03T00:28:01;14.20;;;9.13;;
21825;SDS011;11075;47.944;11.776;2023-04-03T00:30:28;11.80;;;8.47;;
21825;SDS011;11075;47.944;11.776;2023-04-03T00:32:55;15.43;;;9.10;;
21825;SDS011;11075;47.944;11.776;2023-04-03T00:35:23;14.07;;;9.30;;
21825;SDS011;11075;47.944;11.776;2023-04-03T00:37:51;16.63;;;9.07;;
21825;SDS011;11075;47.944;11.776;2023-04-03T00:40:21;15.57;;;8.53;;
21825;SDS011;11075;47.944;11.776;2023-04-03T00:42:55;15.40;;;8.83;;
21825;SDS011;11075;47.944;11.776;2023-04-03T00:45:43;14.13;;;8.80;;
21825;SDS011;11075;47.944;11.776;2023-04-03T00:48:14;13.67;;;8.87;;
21825;SDS011;11075;47.944;11.776;2023-04-03T00:50:48;11.13;;;7.57;;
21825;SDS011;11075;47.944;11.776;2023-04-03T00:53:17;15.63;;;8.73;;
21825;SDS011;11075;47.944;11.776;2023-04-03T00:55:48;12.47;;;8.27;;
21825;SDS011;11075;47.944;11.776;2023-04-03T00:58:17;11.90;;;8.13;;
21825;SDS011;11075;47.944;11.776;2023-04-03T01:00:49;12.50;;;8.23;;
21825;SDS011;11075;47.944;11.776;2023-04-03T01:03:24;12.70;;;8.37;;
21825;SDS011;11075;47.944;11.776;2023-04-03T01:05:53;14.80;;;8.00;;
21825;SDS011;11075;47.944;11.776;2023-04-03T01:08:20;11.10;;;7.83;;
21825;SDS011;11075;47.944;11.776;2023-04-03T01:10:48;13.70;;;8.63;;
21825;SDS011;11075;47.944;11.776;2023-04-03T01:13:49;12.00;;;8.30;;
21825;SDS011;11075;47.944;11.776;2023-04-03T01:16:09;13.40;;;7.83;;
21825;SDS011;11075;47.944;11.776;2023-04-03T01:18:38;13.80;;;8.30;;
21825;SDS011;11075;47.944;11.776;2023-04-03T01:26:42;10.80;;;7.60;;
21825;SDS011;11075;47.944;11.776;2023-04-03T01:29:10;12.40;;;8.03;;
21825;SDS011;11075;47.944;11.776;2023-04-03T01:31:51;12.07;;;7.80;;
21825;SDS011;11075;47.944;11.776;2023-04-03T01:34:23;12.20;;;7.77;;
21825;SDS011;11075;47.944;11.776;2023-04-03T01:36:51;13.13;;;7.83;;
21825;SDS011;11075;47.944;11.776;2023-04-03T01:39:20;11.43;;;7.93;;
21825;SDS011;11075;47.944;11.776;2023-04-03T01:41:48;12.37;;;8.30;;
21825;SDS011;11075;47.944;11.776;2023-04-03T01:44:41;14.47;;;8.03;;
21825;SDS011;11075;47.944;11.776;2023-04-03T01:47:08;11.50;;;7.67;;
21825;SDS011;11075;47.944;11.776;2023-04-03T01:49:37;11.83;;;7.97;;
21825;SDS011;11075;47.944;11.776;2023-04-03T01:52:05;13.30;;;7.80;;
21825;SDS011;11075;47.944;11.776;2023-04-03T01:54:32;11.33;;;7.70;;
21825;SDS011;11075;47.944;11.776;2023-04-03T01:56:59;14.30;;;8.70;;
21825;SDS011;11075;47.944;11.776;2023-04-03T01:59:26;11.93;;;8.00;;
21825;SDS011;11075;47.944;11.776;2023-04-03T02:01:53;11.50;;;7.73;;
21825;SDS011;11075;47.944;11.776;2023-04-03T02:04:20;13.00;;;8.33;;
21825;SDS011;11075;47.944;11.776;2023-04-03T02:06:47;12.53;;;8.20;;
21825;SDS011;11075;47.944;11.776;2023-04-03T02:09:14;13.70;;;7.63;;
21825;SDS011;11075;47.944;11.776;2023-04-03T02:11:41;11.77;;;8.07;;
21825;SDS011;11075;47.944;11.776;2023-04-03T02:14:09;12.67;;;8.00;;
21825;SDS011;11075;47.944;11.776;2023-04-03T02:16:36;12.83;;;8.07;;
21825;SDS011;11075;47.944;11.776;2023-04-03T02:19:03;12.47;;;8.37;;
21825;SDS011;11075;47.944;11.776;2023-04-03T02:21:30;12.20;;;8.50;;
21825;SDS011;11075;47.944;11.776;2023-04-03T02:23:56;13.30;;;8.67;;
21825;SDS011;11075;47.944;11.776;2023-04-03T02:26:23;10.73;;;7.70;;
21825;SDS011;11075;47.944;11.776;2023-04-03T02:28:52;12.63;;;8.43;;
21825;SDS011;11075;47.944;11.776;2023-04-03T02:31:18;14.40;;;9.10;;
21825;SDS011;11075;47.944;11.776;2023-04-03T02:33:46;12.20;;;7.93;;
21825;SDS011;11075;47.944;11.776;2023-04-03T02:36:14;12.73;;;7.90;;
21825;SDS011;11075;47.944;11.776;2023-04-03T02:38:46;11.30;;;7.57;;
21825;SDS011;11075;47.944;11.776;2023-04-03T02:41:13;12.60;;;8.07;;
21825;SDS011;11075;47.944;11.776;2023-04-03T02:43:39;11.33;;;7.97;;
21825;SDS011;11075;47.944;11.776;2023-04-03T02:46:07;14.53;;;8.93;;
21825;SDS011;11075;47.944;11.776;2023-04-03T02:48:34;11.17;;;8.33;;
21825;SDS011;11075;47.944;11.776;2023-04-03T02:51:01;12.73;;;8.33;;
21825;SDS011;11075;47.944;11.776;2023-04-03T02:53:28;11.87;;;8.87;;
21825;SDS011;11075;47.944;11.776;2023-04-03T02:55:57;12.47;;;8.13;;
21825;SDS011;11075;47.944;11.776;2023-04-03T02:58:24;15.67;;;9.20;;
21825;SDS011;11075;47.944;11.776;2023-04-03T03:00:53;12.93;;;8.40;;
21825;SDS011;11075;47.944;11.776;2023-04-03T03:03:20;12.47;;;8.57;;
21825;SDS011;11075;47.944;11.776;2023-04-03T03:05:47;12.70;;;8.17;;
21825;SDS011;11075;47.944;11.776;2023-04-03T03:08:14;11.30;;;7.93;;
21825;SDS011;11075;47.944;11.776;2023-04-03T03:10:41;11.97;;;8.23;;
21825;SDS011;11075;47.944;11.776;2023-04-03T03:13:08;13.70;;;7.90;;
21825;SDS011;11075;47.944;11.776;2023-04-03T03:15:35;12.70;;;8.20;;
21825;SDS011;11075;47.944;11.776;2023-04-03T03:18:02;12.80;;;8.00;;
21825;SDS011;11075;47.944;11.776;2023-04-03T03:20:29;11.43;;;8.23;;
21825;SDS011;11075;47.944;11.776;2023-04-03T03:22:57;15.60;;;9.03;;
21825;SDS011;11075;47.944;11.776;2023-04-03T03:25:24;11.33;;;7.53;;
21825;SDS011;11075;47.944;11.776;2023-04-03T03:27:51;14.33;;;8.63;;
21825;SDS011;11075;47.944;11.776;2023-04-03T03:30:18;11.23;;;8.13;;
21825;SDS011;11075;47.944;11.776;2023-04-03T03:32:45;11.93;;;7.90;;
21825;SDS011;11075;47.944;11.776;2023-04-03T03:35:12;13.40;;;7.83;;
21825;SDS011;11075;47.944;11.776;2023-04-03T03:37:39;12.80;;;8.30;;
21825;SDS011;11075;47.944;11.776;2023-04-03T03:40:07;12.47;;;7.77;;
21825;SDS011;11075;47.944;11.776;2023-04-03T03:42:35;12.17;;;8.57;;
21825;SDS011;11075;47.944;11.776;2023-04-03T03:45:03;14.73;;;9.00;;
21825;SDS011;11075;47.944;11.776;2023-04-03T03:47:30;16.03;;;8.83;;
21825;SDS011;11075;47.944;11.776;2023-04-03T03:49:57;11.77;;;8.00;;
21825;SDS011;11075;47.944;11.776;2023-04-03T03:52:24;14.07;;;8.00;;
21825;SDS011;11075;47.944;11.776;2023-04-03T03:54:53;13.40;;;8.30;;
21825;SDS011;11075;47.944;11.776;2023-04-03T03:57:20;12.83;;;8.53;;
21825;SDS011;11075;47.944;11.776;2023-04-03T03:59:47;12.70;;;8.63;;
21825;SDS011;11075;47.944;11.776;2023-04-03T04:02:17;13.70;;;8.23;;
21825;SDS011;11075;47.944;11.776;2023-04-03T04:04:44;13.40;;;8.50;;
21825;SDS011;11075;47.944;11.776;2023-04-03T04:07:11;16.27;;;9.87;;
21825;SDS011;11075;47.944;11.776;2023-04-03T04:09:40;12.03;;;7.90;;
21825;SDS011;11075;47.944;11.776;2023-04-03T04:12:08;14.13;;;9.00;;
21825;SDS011;11075;47.944;11.776;2023-04-03T04:14:35;11.43;;;7.80;;
21825;SDS011;11075;47.944;11.776;2023-04-03T04:17:03;14.47;;;8.70;;
21825;SDS011;11075;47.944;11.776;2023-04-03T04:19:30;13.03;;;8.00;;
21825;SDS011;11075;47.944;11.776;2023-04-03T04:21:57;10.70;;;8.03;;
21825;SDS011;11075;47.944;11.776;2023-04-03T04:24:24;11.07;;;8.10;;
21825;SDS011;11075;47.944;11.776;2023-04-03T04:26:54;10.73;;;7.67;;
21825;SDS011;11075;47.944;11.776;2023-04-03T04:29:22;10.93;;;7.60;;
21825;SDS011;11075;47.944;11.776;2023-04-03T04:31:50;10.60;;;7.83;;
21825;SDS011;11075;47.944;11.776;2023-04-03T04:34:17;11.70;;;7.90;;
21825;SDS011;11075;47.944;11.776;2023-04-03T04:36:44;13.33;;;7.77;;
21825;SDS011;11075;47.944;11.776;2023-04-03T04:39:11;10.47;;;7.33;;
21825;SDS011;11075;47.944;11.776;2023-04-03T04:41:39;13.03;;;8.00;;
21825;SDS011;11075;47.944;11.776;2023-04-03T04:44:07;14.60;;;7.97;;
21825;SDS011;11075;47.944;11.776;2023-04-03T04:46:35;10.80;;;7.50;;
21825;SDS011;11075;47.944;11.776;2023-04-03T04:49:03;11.50;;;7.63;;
21825;SDS011;11075;47.944;11.776;2023-04-03T04:51:30;11.80;;;7.90;;
21825;SDS011;11075;47.944;11.776;2023-04-03T04:54:15;12.20;;;8.13;;
21825;SDS011;11075;47.944;11.776;2023-04-03T04:56:43;10.80;;;7.70;;
21825;SDS011;11075;47.944;11.776;2023-04-03T04:59:10;11.77;;;7.77;;
21825;SDS011;11075;47.944;11.776;2023-04-03T05:01:38;11.17;;;7.73;;
21825;SDS011;11075;47.944;11.776;2023-04-03T05:04:13;11.47;;;7.60;;
21825;SDS011;11075;47.944;11.776;2023-04-03T05:06:44;10.83;;;7.13;;
21825;SDS011;11075;47.944;11.776;2023-04-03T05:09:15;14.73;;;8.13;;
21825;SDS011;11075;47.944;11.776;2023-04-03T05:11:44;11.63;;;7.97;;
21825;SDS011;11075;47.944;11.776;2023-04-03T05:14:13;11.07;;;7.87;;
21825;SDS011;11075;47.944;11.776;2023-04-03T05:16:40;9.77;;;7.50;;
21825;SDS011;11075;47.944;11.776;2023-04-03T05:19:07;11.20;;;8.10;;
21825;SDS011;11075;47.944;11.776;2023-04-03T05:21:35;10.40;;;7.57;;
21825;SDS011;11075;47.944;11.776;2023-04-03T05:24:08;12.27;;;8.40;;
21825;SDS011;11075;47.944;11.776;2023-04-03T05:26:38;10.07;;;7.27;;
21825;SDS011;11075;47.944;11.776;2023-04-03T05:29:06;11.83;;;8.20;;
21825;SDS011;11075;47.944;11.776;2023-04-03T05:31:33;11.33;;;7.83;;
21825;SDS011;11075;47.944;11.776;2023-04-03T05:34:00;11.73;;;7.67;;
21825;SDS011;11075;47.944;11.776;2023-04-03T05:36:29;11.60;;;7.77;;
21825;SDS011;11075;47.944;11.776;2023-04-03T05:39:01;12.37;;;8.40;;
21825;SDS011;11075;47.944;11.776;2023-04-03T05:41:28;10.20;;;7.70;;
21825;SDS011;11075;47.944;11.776;2023-04-03T05:43:55;11.63;;;8.10;;
21825;SDS011;11075;47.944;11.776;2023-04-03T05:46:24;13.00;;;7.90;;
21825;SDS011;11075;47.944;11.776;2023-04-03T05:48:54;11.40;;;7.30;;
21825;SDS011;11075;47.944;11.776;2023-04-03T05:51:25;13.57;;;7.60;;
21825;SDS011;11075;47.944;11.776;2023-04-03T05:54:09;10.87;;;8.17;;
21825;SDS011;11075;47.944;11.776;2023-04-03T05:56:43;10.10;;;6.90;;
21825;SDS011;11075;47.944;11.776;2023-04-03T05:59:10;19.73;;;8.40;;
21825;SDS011;11075;47.944;11.776;2023-04-03T06:01:38;12.83;;;7.50;;
21825;SDS011;11075;47.944;11.776;2023-04-03T06:04:05;12.33;;;7.57;;
21825;SDS011;11075;47.944;11.776;2023-04-03T06:06:45;10.13;;;7.00;;
21825;SDS011;11075;47.944;11.776;2023-04-03T06:09:21;10.97;;;7.40;;
21825;SDS011;11075;47.944;11.776;2023-04-03T06:11:49;10.70;;;7.17;;
21825;SDS011;11075;47.944;11.776;2023-04-03T06:14:16;9.60;;;7.17;;
21825;SDS011;11075;47.944;11.776;2023-04-03T06:16:44;10.27;;;7.00;;
21825;SDS011;11075;47.944;11.776;2023-04-03T06:19:11;10.13;;;7.07;;
21825;SDS011;11075;47.944;11.776;2023-04-03T06:21:44;9.83;;;6.33;;
21825;SDS011;11075;47.944;11.776;2023-04-03T06:24:12;11.03;;;6.90;;
21825;SDS011;11075;47.944;11.776;2023-04-03T06:26:42;9.80;;;6.73;;
21825;SDS011;11075;47.944;11.776;2023-04-03T06:29:09;10.13;;;6.83;;
21825;SDS011;11075;47.944;11.776;2023-04-03T06:31:36;10.93;;;7.20;;
21825;SDS011;11075;47.944;11.776;2023-04-03T06:34:03;9.53;;;6.80;;
21825;SDS011;11075;47.944;11.776;2023-04-03T06:36:34;8.10;;;6.40;;
21825;SDS011;11075;47.944;11.776;2023-04-03T06:39:00;9.23;;;6.57;;
21825;SDS011;11075;47.944;11.776;2023-04-03T06:41:29;7.57;;;5.73;;
21825;SDS011;11075;47.944;11.776;2023-04-03T06:43:56;7.80;;;5.73;;
21825;SDS011;11075;47.944;11.776;2023-04-03T06:46:25;6.77;;;5.80;;
21825;SDS011;11075;47.944;11.776;2023-04-03T06:48:53;6.53;;;5.57;;
21825;SDS011;11075;47.944;11.776;2023-04-03T06:53:56;6.80;;;5.60;;
21825;SDS011;11075;47.944;11.776;2023-04-03T06:56:25;7.90;;;5.90;;
21825;SDS011;11075;47.944;11.776;2023-04-03T06:58:53;8.33;;;5.53;;
21825;SDS011;11075;47.944;11.776;2023-04-03T07:01:26;10.47;;;5.47;;
21825;SDS011;11075;47.944;11.776;2023-04-03T07:03:56;7.23;;;5.27;;
21825;SDS011;11075;47.944;11.776;2023-04-03T07:06:23;7.83;;;5.73;;
21825;SDS011;11075;47.944;11.776;2023-04-03T07:08:54;7.40;;;5.10;;
21825;SDS011;11075;47.944;11.776;2023-04-03T07:11:21;8.80;;;5.90;;
21825;SDS011;11075;47.944;11.776;2023-04-03T07:13:49;7.40;;;5.27;;
21825;SDS011;11075;47.944;11.776;2023-04-03T07:16:16;8.73;;;5.10;;
21825;SDS011;11075;47.944;11.776;2023-04-03T07:18:44;7.03;;;5.17;;
21825;SDS011;11075;47.944;11.776;2023-04-03T07:21:12;7.57;;;6.10;;
21825;SDS011;11075;47.944;11.776;2023-04-03T07:23:40;5.93;;;4.70;;
21825;SDS011;11075;47.944;11.776;2023-04-03T07:26:06;7.70;;;5.10;;
21825;SDS011;11075;47.944;11.776;2023-04-03T07:28:34;5.87;;;4.60;;
21825;SDS011;11075;47.944;11.776;2023-04-03T07:31:04;7.00;;;4.93;;
21825;SDS011;11075;47.944;11.776;2023-04-03T07:33:35;6.00;;;5.00;;
21825;SDS011;11075;47.944;11.776;2023-04-03T07:36:04;8.60;;;4.77;;
21825;SDS011;11075;47.944;11.776;2023-04-03T07:38:33;6.90;;;4.50;;
21825;SDS011;11075;47.944;11.776;2023-04-03T07:41:02;5.43;;;4.23;;
21825;SDS011;11075;47.944;11.776;2023-04-03T07:43:30;6.00;;;4.20;;
21825;SDS011;11075;47.944;11.776;2023-04-03T07:45:56;5.03;;;4.20;;
21825;SDS011;11075;47.944;11.776;2023-04-03T07:48:24;5.67;;;4.60;;
21825;SDS011;11075;47.944;11.776;2023-04-03T07:50:52;5.23;;;4.03;;
21825;SDS011;11075;47.944;11.776;2023-04-03T07:53:19;7.73;;;4.50;;
21825;SDS011;11075;47.944;11.776;2023-04-03T07:55:46;5.13;;;4.07;;
21825;SDS011;11075;47.944;11.776;2023-04-03T07:58:14;5.53;;;4.40;;
21825;SDS011;11075;47.944;11.776;2023-04-03T08:00:43;7.27;;;4.50;;
21825;SDS011;11075;47.944;11.776;2023-04-03T08:03:11;7.53;;;4.43;;
21825;SDS011;11075;47.944;11.776;2023-04-03T08:05:40;7.50;;;4.60;;
21825;SDS011;11075;47.944;11.776;2023-04-03T08:08:09;7.53;;;4.30;;
21825;SDS011;11075;47.944;11.776;2023-04-03T08:10:38;5.13;;;3.93;;
21825;SDS011;11075;47.944;11.776;2023-04-03T08:13:05;5.17;;;3.93;;
21825;SDS011;11075;47.944;11.776;2023-04-03T08:15:32;5.67;;;4.10;;
21825;SDS011;11075;47.944;11.776;2023-04-03T08:17:59;7.33;;;4.83;;
21825;SDS011;11075;47.944;11.776;2023-04-03T08:20:27;6.83;;;5.23;;
21825;SDS011;11075;47.944;11.776;2023-04-03T08:22:55;5.03;;;3.90;;
21825;SDS011;11075;47.944;11.776;2023-04-03T08:25:22;7.40;;;4.43;;
21825;SDS011;11075;47.944;11.776;2023-04-03T08:27:49;4.97;;;3.60;;
21825;SDS011;11075;47.944;11.776;2023-04-03T08:30:16;7.03;;;4.60;;
21825;SDS011;11075;47.944;11.776;2023-04-03T08:32:42;4.20;;;3.70;;
21825;SDS011;11075;47.944;11.776;2023-04-03T08:35:11;7.00;;;4.43;;
21825;SDS011;11075;47.944;11.776;2023-04-03T08:37:38;5.53;;;4.10;;
21825;SDS011;11075;47.944;11.776;2023-04-03T08:40:07;4.47;;;3.57;;
21825;SDS011;11075;47.944;11.776;2023-04-03T08:45:41;5.93;;;3.87;;
21825;SDS011;11075;47.944;11.776;2023-04-03T08:48:13;4.73;;;3.73;;
21825;SDS011;11075;47.944;11.776;2023-04-03T08:50:47;5.00;;;3.80;;
21825;SDS011;11075;47.944;11.776;2023-04-03T08:53:19;5.23;;;3.90;;
21825;SDS011;11075;47.944;11.776;2023-04-03T08:55:49;4.80;;;4.20;;
21825;SDS011;11075;47.944;11.776;2023-04-03T08:58:26;4.77;;;3.97;;
21825;SDS011;11075;47.944;11.776;2023-04-03T09:01:03;5.83;;;4.60;;
21825;SDS011;11075;47.944;11.776;2023-04-03T09:03:33;6.40;;;4.30;;
21825;SDS011;11075;47.944;11.776;2023-04-03T09:08:44;6.17;;;4.17;;
21825;SDS011;11075;47.944;11.776;2023-04-03T09:11:35;7.27;;;4.67;;
21825;SDS011;11075;47.944;11.776;2023-04-03T09:16:59;6.37;;;4.03;;
21825;SDS011;11075;47.944;11.776;2023-04-03T09:19:46;5.67;;;4.83;;
21825;SDS011;11075;47.944;11.776;2023-04-03T09:22:37;6.10;;;4.60;;
21825;SDS011;11075;47.944;11.776;2023-04-03T09:25:18;6.57;;;4.50;;
21825;SDS011;11075;47.944;11.776;2023-04-03T09:27:49;5.53;;;4.67;;
21825;SDS011;11075;47.944;11.776;2023-04-03T09:30:18;7.07;;;4.77;;
21825;SDS011;11075;47.944;11.776;2023-04-03T09:32:48;8.37;;;4.63;;
21825;SDS011;11075;47.944;11.776;2023-04-03T09:40:43;6.97;;;4.00;;
21825;SDS011;11075;47.944;11.776;2023-04-03T09:43:34;7.40;;;4.20;;
21825;SDS011;11075;47.944;11.776;2023-04-03T09:48:58;6.97;;;4.50;;
21825;SDS011;11075;47.944;11.776;2023-04-03T09:51:34;7.27;;;4.77;;
21825;SDS011;11075;47.944;11.776;2023-04-03T09:54:01;9.43;;;5.70;;
21825;SDS011;11075;47.944;11.776;2023-04-03T09:56:53;8.57;;;4.63;;
21825;SDS011;11075;47.944;11.776;2023-04-03T09:59:22;5.23;;;4.60;;
21825;SDS011;11075;47.944;11.776;2023-04-03T10:05:33;6.60;;;4.67;;
21825;SDS011;11075;47.944;11.776;2023-04-03T10:10:47;5.07;;;4.10;;
21825;SDS011;11075;47.944;11.776;2023-04-03T10:13:19;7.73;;;4.47;;
21825;SDS011;11075;47.944;11.776;2023-04-03T10:16:01;7.00;;;4.40;;
21825;SDS011;11075;47.944;11.776;2023-04-03T10:24:08;6.67;;;3.70;;
21825;SDS011;11075;47.944;11.776;2023-04-03T10:35:02;5.20;;;4.27;;
21825;SDS011;11075;47.944;11.776;2023-04-03T10:42:58;5.13;;;3.97;;
21825;SDS011;11075;47.944;11.776;2023-04-03T10:53:37;6.53;;;4.20;;
21825;SDS011;11075;47.944;11.776;2023-04-03T10:56:13;7.70;;;4.60;;
21825;SDS011;11075;47.944;11.776;2023-04-03T10:58:48;6.00;;;5.07;;
21825;SDS011;11075;47.944;11.776;2023-04-03T11:01:24;5.00;;;3.83;;
21825;SDS011;11075;47.944;11.776;2023-04-03T11:03:59;4.77;;;4.07;;
21825;SDS011;11075;47.944;11.776;2023-04-03T11:06:34;5.07;;;3.90;;
21825;SDS011;11075;47.944;11.776;2023-04-03T11:09:07;4.33;;;3.53;;
21825;SDS011;11075;47.944;11.776;2023-04-03T11:11:46;4.77;;;3.73;;
21825;SDS011;11075;47.944;11.776;2023-04-03T11:14:29;5.53;;;3.77;;
21825;SDS011;11075;47.944;11.776;2023-04-03T11:20:14;3.10;;;2.80;;
21825;SDS011;11075;47.944;11.776;2023-04-03T11:22:48;3.53;;;2.67;;
21825;SDS011;11075;47.944;11.776;2023-04-03T11:25:21;3.00;;;2.40;;
21825;SDS011;11075;47.944;11.776;2023-04-03T11:33:28;5.33;;;2.50;;
21825;SDS011;11075;47.944;11.776;2023-04-03T11:35:59;2.67;;;2.23;;
21825;SDS011;11075;47.944;11.776;2023-04-03T11:38:44;5.03;;;2.23;;
21825;SDS011;11075;47.944;11.776;2023-04-03T11:41:13;2.47;;;2.27;;
21825;SDS011;11075;47.944;11.776;2023-04-03T11:44:04;3.53;;;2.67;;
21825;SDS011;11075;47.944;11.776;2023-04-03T12:11:51;4.57;;;4.03;;
21825;SDS011;11075;47.944;11.776;2023-04-03T12:19:00;4.37;;;3.50;;
21825;SDS011;11075;47.944;11.776;2023-04-03T12:26:38;3.97;;;3.57;;
21825;SDS011;11075;47.944;11.776;2023-04-03T12:29:32;6.57;;;3.27;;
21825;SDS011;11075;47.944;11.776;2023-04-03T12:34:46;4.70;;;3.77;;
21825;SDS011;11075;47.944;11.776;2023-04-03T12:37:21;4.07;;;3.37;;
21825;SDS011;11075;47.944;11.776;2023-04-03T12:40:39;6.40;;;3.33;;
21825;SDS011;11075;47.944;11.776;2023-04-03T12:43:09;4.23;;;3.20;;
21825;SDS011;11075;47.944;11.776;2023-04-03T12:45:49;4.93;;;3.07;;
21825;SDS011;11075;47.944;11.776;2023-04-03T12:48:46;7.90;;;3.30;;
21825;SDS011;11075;47.944;11.776;2023-04-03T12:54:01;4.93;;;3.40;;
21825;SDS011;11075;47.944;11.776;2023-04-03T12:56:49;6.77;;;3.57;;
21825;SDS011;11075;47.944;11.776;2023-04-03T13:02:00;4.33;;;3.20;;
21825;SDS011;11075;47.944;11.776;2023-04-03T13:04:28;6.10;;;3.30;;
21825;SDS011;11075;47.944;11.776;2023-04-03T13:06:58;6.23;;;3.40;;
21825;SDS011;11075;47.944;11.776;2023-04-03T13:09:26;3.63;;;2.67;;
21825;SDS011;11075;47.944;11.776;2023-04-03T13:12:00;5.07;;;3.00;;
21825;SDS011;11075;47.944;11.776;2023-04-03T13:14:30;7.30;;;2.97;;
21825;SDS011;11075;47.944;11.776;2023-04-03T13:16:58;4.73;;;2.83;;
21825;SDS011;11075;47.944;11.776;2023-04-03T13:19:37;5.57;;;3.00;;
21825;SDS011;11075;47.944;11.776;2023-04-03T13:22:07;5.00;;;3.00;;
21825;SDS011;11075;47.944;11.776;2023-04-03T13:24:52;4.43;;;2.83;;
21825;SDS011;11075;47.944;11.776;2023-04-03T13:27:21;3.83;;;2.83;;
21825;SDS011;11075;47.944;11.776;2023-04-03T13:29:49;3.77;;;2.87;;
21825;SDS011;11075;47.944;11.776;2023-04-03T13:32:21;3.73;;;2.90;;
21825;SDS011;11075;47.944;11.776;2023-04-03T13:34:50;6.30;;;3.10;;
21825;SDS011;11075;47.944;11.776;2023-04-03T13:37:25;5.67;;;3.17;;
21825;SDS011;11075;47.944;11.776;2023-04-03T13:39:58;6.73;;;3.33;;
21825;SDS011;11075;47.944;11.776;2023-04-03T13:42:38;6.53;;;3.77;;
21825;SDS011;11075;47.944;11.776;2023-04-03T13:45:14;4.03;;;3.47;;
21825;SDS011;11075;47.944;11.776;2023-04-03T13:47:47;5.27;;;4.20;;
21825;SDS011;11075;47.944;11.776;2023-04-03T13:50:17;9.30;;;3.67;;
21825;SDS011;11075;47.944;11.776;2023-04-03T13:55:22;5.30;;;3.27;;
21825;SDS011;11075;47.944;11.776;2023-04-03T13:58:02;6.07;;;3.10;;
21825;SDS011;11075;47.944;11.776;2023-04-03T14:00:52;4.47;;;2.87;;
21825;SDS011;11075;47.944;11.776;2023-04-03T14:03:23;9.40;;;3.27;;
21825;SDS011;11075;47.944;11.776;2023-04-03T14:05:52;5.73;;;3.27;;
21825;SDS011;11075;47.944;11.776;2023-04-03T14:08:20;5.50;;;3.03;;
21825;SDS011;11075;47.944;11.776;2023-04-03T14:11:01;3.60;;;2.30;;
21825;SDS011;11075;47.944;11.776;2023-04-03T14:13:28;3.83;;;2.97;;
21825;SDS011;11075;47.944;11.776;2023-04-03T14:15:56;3.77;;;2.60;;
21825;SDS011;11075;47.944;11.776;2023-04-03T14:18:31;3.93;;;2.93;;
21825;SDS011;11075;47.944;11.776;2023-04-03T14:20:58;5.20;;;2.87;;
21825;SDS011;11075;47.944;11.776;2023-04-03T14:23:25;4.70;;;3.53;;
21825;SDS011;11075;47.944;11.776;2023-04-03T14:25:52;4.60;;;3.07;;
21825;SDS011;11075;47.944;11.776;2023-04-03T14:28:20;3.50;;;2.70;;
21825;SDS011;11075;47.944;11.776;2023-04-03T14:30:49;5.40;;;3.27;;
21825;SDS011;11075;47.944;11.776;2023-04-03T14:33:19;4.03;;;2.63;;
21825;SDS011;11075;47.944;11.776;2023-04-03T14:35:48;7.07;;;4.00;;
21825;SDS011;11075;47.944;11.776;2023-04-03T14:40:49;5.07;;;3.47;;
21825;SDS011;11075;47.944;11.776;2023-04-03T14:43:17;6.93;;;3.90;;
21825;SDS011;11075;47.944;11.776;2023-04-03T14:45:46;6.03;;;3.20;;
21825;SDS011;11075;47.944;11.776;2023-04-03T14:48:21;4.67;;;3.17;;
21825;SDS011;11075;47.944;11.776;2023-04-03T14:50:52;7.27;;;3.53;;
21825;SDS011;11075;47.944;11.776;2023-04-03T14:53:30;5.97;;;3.70;;
21825;SDS011;11075;47.944;11.776;2023-04-03T14:56:09;3.87;;;3.37;;
21825;SDS011;11075;47.944;11.776;2023-04-03T14:58:38;5.03;;;2.90;;
21825;SDS011;11075;47.944;11.776;2023-04-03T15:01:05;4.23;;;3.13;;
21825;SDS011;11075;47.944;11.776;2023-04-03T15:03:31;4.40;;;3.00;;
21825;SDS011;11075;47.944;11.776;2023-04-03T15:05:59;5.13;;;2.97;;
21825;SDS011;11075;47.944;11.776;2023-04-03T15:08:26;6.47;;;2.70;;
21825;SDS011;11075;47.944;11.776;2023-04-03T15:10:55;8.83;;;5.47;;
21825;SDS011;11075;47.944;11.776;2023-04-03T15:13:23;6.73;;;3.70;;
21825;SDS011;11075;47.944;11.776;2023-04-03T15:15:51;3.93;;;2.53;;
21825;SDS011;11075;47.944;11.776;2023-04-03T15:18:22;4.07;;;2.63;;
21825;SDS011;11075;47.944;11.776;2023-04-03T15:20:56;4.23;;;2.60;;
21825;SDS011;11075;47.944;11.776;2023-04-03T15:23:23;4.20;;;2.60;;
21825;SDS011;11075;47.944;11.776;2023-04-03T15:25:54;4.03;;;2.70;;
21825;SDS011;11075;47.944;11.776;2023-04-03T15:28:24;5.30;;;2.97;;
21825;SDS011;11075;47.944;11.776;2023-04-03T15:30:56;4.20;;;2.40;;
21825;SDS011;11075;47.944;11.776;2023-04-03T15:33:24;4.53;;;2.43;;
21825;SDS011;11075;47.944;11.776;2023-04-03T15:35:51;3.93;;;2.13;;
21825;SDS011;11075;47.944;11.776;2023-04-03T15:38:21;2.97;;;2.17;;
21825;SDS011;11075;47.944;11.776;2023-04-03T15:40:48;3.47;;;2.30;;
21825;SDS011;11075;47.944;11.776;2023-04-03T15:43:16;3.60;;;2.20;;
21825;SDS011;11075;47.944;11.776;2023-04-03T15:45:43;3.17;;;1.67;;
21825;SDS011;11075;47.944;11.776;2023-04-03T15:48:10;3.53;;;1.83;;
21825;SDS011;11075;47.944;11.776;2023-04-03T15:50:38;2.53;;;1.67;;
21825;SDS011;11075;47.944;11.776;2023-04-03T15:53:06;3.33;;;2.00;;
21825;SDS011;11075;47.944;11.776;2023-04-03T15:55:35;4.20;;;1.87;;
21825;SDS011;11075;47.944;11.776;2023-04-03T15:58:03;3.47;;;2.07;;
21825;SDS011;11075;47.944;11.776;2023-04-03T16:00:31;5.30;;;2.03;;
21825;SDS011;11075;47.944;11.776;2023-04-03T16:03:04;2.20;;;1.73;;
21825;SDS011;11075;47.944;11.776;2023-04-03T16:05:35;2.67;;;1.70;;
21825;SDS011;11075;47.944;11.776;2023-04-03T16:08:04;2.87;;;2.03;;
21825;SDS011;11075;47.944;11.776;2023-04-03T16:10:34;18.83;;;8.57;;
21825;SDS011;11075;47.944;11.776;2023-04-03T16:13:02;25.30;;;11.37;;
21825;SDS011;11075;47.944;11.776;2023-04-03T16:15:30;15.40;;;7.20;;
21825;SDS011;11075;47.944;11.776;2023-04-03T16:18:00;15.13;;;7.80;;
21825;SDS011;11075;47.944;11.776;2023-04-03T16:20:27;6.27;;;3.67;;
21825;SDS011;11075;47.944;11.776;2023-04-03T16:22:55;7.23;;;2.90;;
21825;SDS011;11075;47.944;11.776;2023-04-03T16:25:24;7.37;;;3.90;;
21825;SDS011;11075;47.944;11.776;2023-04-03T16:27:51;3.93;;;2.27;;
21825;SDS011;11075;47.944;11.776;2023-04-03T16:30:18;3.30;;;2.90;;
21825;SDS011;11075;47.944;11.776;2023-04-03T16:32:46;4.47;;;2.23;;
21825;SDS011;11075;47.944;11.776;2023-04-03T16:35:13;3.00;;;2.33;;
21825;SDS011;11075;47.944;11.776;2023-04-03T16:37:40;4.57;;;3.13;;
21825;SDS011;11075;47.944;11.776;2023-04-03T16:40:07;7.53;;;3.53;;
21825;SDS011;11075;47.944;11.776;2023-04-03T16:42:35;5.83;;;3.47;;